Language selection

Weather shortcuts

Haro Strait: Past 24 Hour Conditions

 

Georgia Strait - 46303

03:00 AM PDT 25 May 2024Buoy position: 49.03N 123.43W
Disclaimer

This table is a summary of hourly weather conditions for the past 24 hours.
Please note that these observations might not always be representative of weather conditions over their associated marine area.

Date / Time
(PDT)
Wind(knots) Wave height(m) Wave period(s) Pressure(kPa) Air tempC) Water tempC)
25 May 2024
3:00 NW 13 gusts 18 0.49 2.9 100.9 11 13
2:00 NW 13 gusts 17 0.37 2.3 100.9 11 13
1:00 NW 10 gusts 20 0.11 3.3 100.9 11 13
0:00 S 1 gusts 2 0.13 3.4 100.9 12 13
24 May 2024
23:00 ESE 3 gusts 4 0.14 3.2 100.9 12 13
22:00 E 6 gusts 8 0.16 2.8 100.9 12 13
21:00 ESE 6 gusts 6 0.16 2.4 100.9 11 13
20:00 ESE 8 gusts 10 0.19 2.6 100.9 12 13
19:00 SE 10 gusts 11 0.25 2.3 100.9 12 13
18:00 ESE 9 gusts 11 0.19 2.2 101.0 12 13
17:00 ESE 9 gusts 11 0.21 2.3 101.0 11 13
16:00 ESE 9 gusts 11 0.27 2.5 101.1 11 13
15:00 ESE 9 gusts 11 0.35 2.6 101.1 11 13
14:00 ESE 10 gusts 11 0.39 2.8 101.2 11 13
13:00 ESE 11 gusts 15 0.42 2.7 101.2 11 13
12:00 ESE 11 gusts 14 0.36 2.8 101.2 10 13
11:00 ESE 10 gusts 12 0.27 2.8 101.2 10 13
10:00 SE 11 gusts 13 0.24 2.6 101.2 10 13
9:00 SE 8 gusts 10 0.14 2.6 101.2 10 13
8:00 SE 9 gusts 10 0.13 2.3 101.2 11 13
7:00 SE 7 gusts 9 0.14 2.6 101.2 11 13
6:00 SSW 4 gusts 5 0.12 2.4 101.2 12 13
5:00 SSW 4 gusts 5 0.12 2.7 101.2 12 13
4:00 ESE 4 gusts 5 0.14 2.5 101.3 12 13
3:00 E 7 gusts 9 0.16 2.4 101.3 12 13

Zoom-in to make a selection

Map of Pacific - Georgia Basin marine weather areas Sentry Shoal - 46131 Halibut Bank - 46146 La Perouse Bank - 46206 Georgia Strait - 46303 English Bay – 46304 Discovery Island Esquimalt Harbour Kelp Reefs Malahat Race Rocks Lightstation Saturna Island Sheringham Point University of Victoria Victoria Gonzales Victoria Int'l Airport Ballenas Islands Campbell River Airport Comox Airport Entrance Island Fanny Island Nanaimo Airport Sisters Islets Estevan Point Port Alberni Tofino Airport Grief Point Howe Sound - Pam Rocks Powell River Airport Sechelt Squamish Airport Point Atkinson Sand Heads Lightstation Tsawwassen Ferry Terminal Vancouver Int'l Airport Vancouver Harbour West Vancouver
Legend:
buoy Buoy
land station Land Station

Pacific - Georgia Basin Area

Another Region

Features

New Predicting and Alerting Coastal Flooding Program

Find out about coastal flooding coverage, forecasts and warnings in your region

Date modified: